Terminal Aerodrome Forecast
Issued by NWS

Current Version | Previous Version | Text Only | Print | Product List | Glossary On
Versions: 1 2 3 4 5 6 7 8 9 10 11 12 13 14 15 16 17 18 19 20 21 22 23 24 25 26 27 28 29 30 31 32
000
FTUS44 KLIX 250520
TAFHDC
TAF
KHDC 250520Z 2506/2606 00000KT P6SM VCSH SCT040 BKN120
     FM250800 VRB03KT P6SM -SHRA SCT035 BKN110
      TEMPO 2508/2512 4SM TSRA BKN035CB
     FM251500 27004KT P6SM FEW035 SCT150 PROB30 2515/2521 4SM TSRA
      BKN035CB BKN050 BKN060
     FM260100 24004KT P6SM BKN080 BKN120=

USA.gov is the U.S. government's official web portal to all federal, state and local government web resources and services.